Barter Island LRRS, AK

3:59 AM AKDT on August 30, 2014 (GMT -0800)
Kuparuk | Change Station
CLOSE
Current Station
Airport
Location: Kuparuk,
Elevation: 66 ft
Nearby Weather Stations

Elev 66 ft 70.33 °N, 149.60 °W | Updated 9 hours ago

Fog
Fog
32 °F
Feels Like 25 °F
N
9
Wind Variable Wind from WSW
Gusts mph

Today
High -- | Low -- °F
--% Chance of Precip.
Yesterday
High -- | Low -- °F
Precip. -- in
5:41 AM 9:25 PM
Waxing Crescent, 21% visible
Pressure 29.58 in
Visibility 10.0 miles
Clouds Scattered Clouds 2200 ft
Mostly Cloudy 6000 ft
Windchill 25 °F
Dew Point 32 °F
Humidity 100%
Rainfall 0.00 in
Snow Depth Not available.
UV 0 out of 12
Pollen Not available.
Air Quality Not available.
Flu Activity Not available.
METAR PAKU 300245Z 23017G21KT 10SM R24/P6000FT -SHRA SCT022 BKN060 03/01 A2958 RMK LAST

More Conditions Fewer Conditions

Pressure 29.58 in
Visibility 10.0 miles
Clouds Scattered Clouds 2200 ft
Mostly Cloudy 6000 ft
Windchill 25 °F
Dew Point 32 °F
Humidity 100%
Rainfall 0.00 in
Snow Depth Not available.
UV 0 out of 12
Pollen Not available.
Air Quality Not available.
Flu Activity Not available.
METAR PAKU 300245Z 23017G21KT 10SM R24/P6000FT -SHRA SCT022 BKN060 03/01 A2958 RMK LAST

More Conditions Fewer Conditions

10-Day Weather Forecast

Almanac

Astronomy

Aug. 30, 2014 Rise Set
Actual Time 5:41 AM AKDT 9:25 PM AKDT
Civil Twilight 4:22 AM AKDT 10:42 PM AKDT
Nautical Twilight 2:07 AM AKDT 1:02 AM AKDT
Astronomical Twilight Sun does not rise Sun does not rise
Moon 1:48 PM AKDT 8:48 PM AKDT
Length of Visible Light 18h 20m
Length of Day
15h 44m
Tomorrow will be 9m 14s shorter.
Waxing Crescent, 21% of the Moon is Illuminated
Today
Waxing Crescent
Sep 2
First Quarter
Sep 8
Full
Sep 15
Last Quarter
Sep 24
New

Today's Extremes

State Highs State Lows

Community

WunderPhotos

Upload Photos

1,748,492 photos uploaded!

WunderBlogs® & News

By Dr. Jeff Masters
Director of Meteorology, Weather Underground
By Kari Strenfel
Meteorologist, Weather Underground
By Christopher C. Burt
Weather Historian, Weather Underground
August 30, 2014
August 30, 2014
August 30, 2014

Nearby

Snow Depth

Station Depth Elevation
Imnaviat Creek 2 in 3050 ft
Atigun Pass 3 in 4800 ft
Fort Yukon 2 in 430 ft
Coldfoot 0 in 1040 ft
Gobblers Knob 0 in 2030 ft

Earthquake Activity

City Distance Mag. Time & Date
No recent earthquake activity has been reported nearby.
Minimum magnitude displayed is 2.5.

Coastal Water Temperatures

Place Temperature
No Stations Reporting

Nearby Weather Stations